Time;durP1;ratioP1;P1;durP2;ratioP2;P2;SDS_P1;SDS_P2;PMS_P1;PMS_P2;Temp;Humidity;BMP_temperature;BMP_pressure;BME280_temperature;BME280_humidity;BME280_pressure;Samples;Min_cycle;Max_cycle;Signal;HPM_P1;HPM_P2
2023/04/06 00:00:34;;;;;;;8.53;4.10;;;;;;;0.33;73.25;98901.09;5051933;28;20247;-60
2023/04/06 00:03:01;;;;;;;7.20;4.13;;;;;;;0.37;73.74;98899.22;5072388;28;20269;-59
2023/04/06 00:05:30;;;;;;;8.67;4.00;;;;;;;0.36;74.23;98882.16;5054685;28;20773;-60
2023/04/06 00:07:58;;;;;;;10.00;4.27;;;;;;;0.42;73.63;98895.50;5057485;28;20235;-60
2023/04/06 00:10:27;;;;;;;5.87;3.80;;;;;;;0.47;74.71;98890.13;5054983;28;20228;-60
2023/04/06 00:12:54;;;;;;;5.83;3.70;;;;;;;0.43;73.60;98892.03;5057256;28;20232;-59
2023/04/06 00:15:21;;;;;;;5.70;3.53;;;;;;;0.35;71.79;98895.91;5068411;28;20239;-57
2023/04/06 00:17:48;;;;;;;6.83;3.93;;;;;;;0.22;72.88;98893.13;5057671;28;20384;-60
2023/04/06 00:20:15;;;;;;;6.10;3.97;;;;;;;0.10;74.16;98890.28;5051614;28;20599;-59
2023/04/06 00:22:42;;;;;;;6.73;4.00;;;;;;;0.11;73.76;98886.78;5050345;28;20629;-55
2023/04/06 00:25:09;;;;;;;6.70;4.10;;;;;;;0.07;74.65;98887.84;5053224;28;20234;-58
2023/04/06 00:27:38;;;;;;;9.87;4.20;;;;;;;0.03;74.99;98875.28;5048363;28;20230;-58
2023/04/06 00:30:06;;;;;;;7.63;3.80;;;;;;;0.06;75.25;98875.13;5051993;28;20719;-58
2023/04/06 00:32:33;;;;;;;9.93;3.77;;;;;;;0.10;75.80;98879.19;5057734;28;20256;-59
2023/04/06 00:34:59;;;;;;;6.43;3.97;;;;;;;0.00;76.44;98873.69;5055139;28;20224;-59
2023/04/06 00:37:26;;;;;;;6.37;3.63;;;;;;;0.02;76.50;98866.72;5049920;28;20225;-59
2023/04/06 00:39:53;;;;;;;6.70;3.87;;;;;;;0.09;77.46;98869.81;5051855;28;20314;-59
2023/04/06 00:42:25;;;;;;;5.80;4.20;;;;;;;0.17;75.59;98860.00;5056181;28;20251;-58
2023/04/06 00:44:53;;;;;;;6.77;3.77;;;;;;;0.25;76.17;98864.72;5060972;28;20239;-59
2023/04/06 00:47:20;;;;;;;7.10;3.53;;;;;;;0.22;76.47;98858.03;5050142;28;20216;-60
2023/04/06 00:49:47;;;;;;;8.67;3.67;;;;;;;0.15;76.42;98848.97;5057034;28;20255;-59
2023/04/06 00:52:15;;;;;;;9.32;4.55;;;;;;;0.17;75.52;98854.88;5048398;28;20468;-60
2023/04/06 00:54:45;;;;;;;6.10;4.03;;;;;;;0.11;76.21;98844.91;5058729;28;20242;-59
2023/04/06 00:57:13;;;;;;;9.33;4.17;;;;;;;0.08;78.32;98853.59;5051580;28;20240;-60
2023/04/06 00:59:41;;;;;;;5.73;3.50;;;;;;;-0.02;76.18;98855.00;5051314;28;20237;-60
2023/04/06 01:02:12;;;;;;;6.40;3.60;;;;;;;-0.08;75.18;98858.69;5050662;28;20589;-59
2023/04/06 01:04:46;;;;;;;5.57;3.50;;;;;;;-0.13;76.03;98860.66;5053095;28;20237;-60
2023/04/06 01:07:22;;;;;;;6.37;3.67;;;;;;;-0.03;75.41;98858.47;5052685;28;20233;-59
2023/04/06 01:10:03;;;;;;;8.20;3.47;;;;;;;-0.01;77.62;98862.59;5073176;28;20583;-59
2023/04/06 01:12:31;;;;;;;7.70;3.70;;;;;;;-0.19;76.19;98861.78;5069333;28;20223;-60
2023/04/06 01:15:01;;;;;;;5.50;3.43;;;;;;;-0.21;76.77;98860.19;5054827;28;20758;-59
2023/04/06 01:17:33;;;;;;;6.23;3.60;;;;;;;-0.30;78.03;98853.81;5053241;28;20328;-59
2023/04/06 01:20:08;;;;;;;8.03;4.13;;;;;;;-0.37;76.65;98850.69;5053233;28;20237;-59
2023/04/06 01:22:37;;;;;;;7.70;3.53;;;;;;;-0.39;77.14;98859.38;5051541;28;20237;-60
2023/04/06 01:25:04;;;;;;;5.23;3.60;;;;;;;-0.45;78.20;98861.34;5052987;28;20226;-59
2023/04/06 01:27:38;;;;;;;5.77;3.87;;;;;;;-0.34;79.44;98860.00;5050641;28;20234;-60
2023/04/06 01:30:23;;;;;;;8.97;4.00;;;;;;;-0.46;79.65;98849.44;5054684;28;20234;-59
2023/04/06 01:33:00;;;;;;;6.53;3.40;;;;;;;-0.48;79.48;98847.81;5060993;28;20239;-59
2023/04/06 01:36:00;;;;;;;5.57;3.40;;;;;;;-0.49;78.73;98851.28;5049071;28;20234;-59
2023/04/06 01:38:28;;;;;;;7.13;4.00;;;;;;;-0.58;80.55;98850.03;5057852;28;20254;-59
2023/04/06 01:40:57;;;;;;;9.47;3.80;;;;;;;-0.57;80.48;98844.00;5055444;28;20325;-59
2023/04/06 01:43:26;;;;;;;6.07;4.00;;;;;;;-0.65;80.32;98840.97;5058272;28;20700;-59
2023/04/06 01:46:05;;;;;;;6.70;3.90;;;;;;;-0.62;82.44;98845.94;5054413;28;20234;-57
2023/04/06 01:48:36;;;;;;;6.67;3.63;;;;;;;-0.65;82.49;98843.53;5057889;28;20747;-60
2023/04/06 01:51:12;;;;;;;6.63;4.17;;;;;;;-0.64;81.06;98840.91;5056081;28;20237;-59
2023/04/06 01:53:49;;;;;;;9.73;4.33;;;;;;;-0.72;81.44;98840.44;5050585;28;20254;-58
2023/04/06 01:56:17;;;;;;;6.00;4.00;;;;;;;-0.60;82.14;98851.81;5052427;28;20226;-60
2023/04/06 01:58:52;;;;;;;6.23;4.03;;;;;;;-0.66;82.40;98844.44;5060273;28;20350;-59
2023/04/06 02:01:19;;;;;;;5.93;3.90;;;;;;;-0.78;83.32;98851.81;5052581;28;20233;-59
2023/04/06 02:03:53;;;;;;;7.47;4.40;;;;;;;-0.81;81.96;98843.44;5061372;28;20227;-60
2023/04/06 02:06:20;;;;;;;9.07;4.27;;;;;;;-0.82;83.20;98840.03;5052831;28;20764;-57
2023/04/06 02:08:49;;;;;;;5.40;3.83;;;;;;;-0.77;82.05;98838.09;5053667;28;20248;-58
2023/04/06 02:11:16;;;;;;;9.50;4.53;;;;;;;-0.71;82.29;98843.81;5058454;28;20227;-59
2023/04/06 02:13:47;;;;;;;6.30;4.40;;;;;;;-0.69;81.67;98837.75;5056917;28;20223;-58
2023/04/06 02:16:15;;;;;;;6.80;4.30;;;;;;;-0.75;80.57;98840.59;5054533;28;20243;-59
2023/04/06 02:18:43;;;;;;;5.73;4.10;;;;;;;-0.49;78.39;98841.03;5060866;28;20681;-60
2023/04/06 02:21:10;;;;;;;6.77;4.03;;;;;;;-0.62;80.07;98835.69;5062035;28;20710;-60
2023/04/06 02:23:37;;;;;;;7.63;4.50;;;;;;;-0.75;80.02;98841.41;5050754;28;20226;-60
2023/04/06 02:26:05;;;;;;;9.10;4.80;;;;;;;-0.83;80.81;98848.63;5057566;28;20314;-60
2023/04/06 02:28:32;;;;;;;8.33;4.90;;;;;;;-0.79;82.08;98842.47;5056345;28;20279;-59
2023/04/06 02:31:01;;;;;;;8.50;4.60;;;;;;;-0.80;82.08;98839.97;5058822;28;20710;-60
2023/04/06 02:33:28;;;;;;;7.13;4.33;;;;;;;-0.86;82.14;98833.41;5055329;28;20230;-58
2023/04/06 02:35:57;;;;;;;10.33;4.60;;;;;;;-0.88;82.16;98835.22;5074512;28;20226;-59
2023/04/06 02:38:24;;;;;;;9.03;4.67;;;;;;;-0.89;81.95;98828.41;5072424;28;20738;-59
2023/04/06 02:40:52;;;;;;;7.07;4.40;;;;;;;-1.01;81.66;98834.97;5064448;28;20230;-60
2023/04/06 02:43:26;;;;;;;7.93;4.63;;;;;;;-0.81;83.40;98831.44;5061766;28;20615;-59
2023/04/06 02:46:01;;;;;;;7.40;4.60;;;;;;;-0.88;83.23;98824.94;5061419;28;20230;-59
2023/04/06 02:48:30;;;;;;;13.67;4.50;;;;;;;-0.89;81.72;98830.97;5054385;28;20219;-60
2023/04/06 02:50:58;;;;;;;7.93;4.57;;;;;;;-0.93;80.81;98832.03;5063815;28;20765;-59
2023/04/06 02:53:25;;;;;;;8.37;5.07;;;;;;;-0.90;80.87;98834.44;5051462;28;20229;-57
2023/04/06 02:55:52;;;;;;;10.37;5.50;;;;;;;-0.95;82.58;98826.16;5058533;28;20288;-59
2023/04/06 02:58:19;;;;;;;8.60;5.70;;;;;;;-0.95;81.51;98831.28;5055489;28;20254;-59
2023/04/06 03:00:52;;;;;;;12.03;5.73;;;;;;;-1.04;81.53;98828.25;5059679;28;20233;-59
2023/04/06 03:03:18;;;;;;;9.13;5.03;;;;;;;-1.00;81.30;98834.06;5055437;28;20223;-59
2023/04/06 03:05:47;;;;;;;8.90;5.23;;;;;;;-0.92;81.21;98831.13;5056967;28;20319;-59
2023/04/06 03:08:15;;;;;;;10.63;5.60;;;;;;;-0.98;79.77;98824.56;5070581;28;20691;-57
2023/04/06 03:10:44;;;;;;;9.00;5.07;;;;;;;-1.02;80.58;98822.22;5073954;28;20235;-59
2023/04/06 03:13:12;;;;;;;9.90;5.30;;;;;;;-1.03;82.13;98823.97;5057008;28;20226;-59
2023/04/06 03:15:48;;;;;;;14.97;5.17;;;;;;;-0.99;82.27;98827.19;5055017;28;20314;-59
2023/04/06 03:18:24;;;;;;;9.80;5.00;;;;;;;-1.10;83.73;98826.00;5062297;28;20226;-58
2023/04/06 03:20:53;;;;;;;8.47;5.37;;;;;;;-1.02;83.31;98817.09;5057737;28;20222;-59
2023/04/06 03:23:21;;;;;;;8.00;5.00;;;;;;;-1.14;83.80;98818.50;5054445;28;20230;-59
2023/04/06 03:25:52;;;;;;;8.87;5.50;;;;;;;-1.11;84.70;98819.22;5063803;28;20357;-59
2023/04/06 03:28:20;;;;;;;9.03;5.67;;;;;;;-1.05;86.59;98815.53;5053834;28;20222;-59
2023/04/06 03:33:39;;;;;;;9.60;5.60;;;;;;;-1.15;85.12;98820.25;4992604;28;20271;-62
2023/04/06 03:36:08;;;;;;;7.50;5.17;;;;;;;-1.15;85.73;98816.84;4988228;28;20322;-62
2023/04/06 03:38:39;;;;;;;11.57;6.07;;;;;;;-1.04;85.21;98819.75;4977908;28;20239;-62
2023/04/06 03:41:11;;;;;;;8.67;5.87;;;;;;;-1.01;84.78;98814.47;4998489;28;20318;-62
2023/04/06 03:43:39;;;;;;;10.47;5.13;;;;;;;-0.96;84.90;98815.09;4960756;28;20711;-62
2023/04/06 03:46:06;;;;;;;7.50;5.00;;;;;;;-0.97;83.19;98817.69;4967063;28;20310;-62
2023/04/06 03:48:33;;;;;;;9.63;5.63;;;;;;;-0.90;83.27;98809.66;4972428;28;20244;-62
2023/04/06 03:51:05;;;;;;;10.27;5.63;;;;;;;-0.93;81.46;98816.66;4975349;28;20229;-62
2023/04/06 03:53:32;;;;;;;10.53;6.10;;;;;;;-0.99;82.98;98827.19;4975738;28;20229;-62
2023/04/06 03:55:59;;;;;;;12.93;6.23;;;;;;;-0.99;82.35;98827.19;4975048;28;20328;-62
2023/04/06 03:58:28;;;;;;;8.00;5.40;;;;;;;-0.91;82.43;98825.94;4992820;28;20212;-62
2023/04/06 04:00:56;;;;;;;7.67;5.43;;;;;;;-0.87;83.32;98821.50;4961989;28;20323;-62
2023/04/06 04:03:26;;;;;;;10.50;5.73;;;;;;;-0.98;83.60;98833.97;4975168;28;20307;-63
2023/04/06 04:05:53;;;;;;;9.90;6.10;;;;;;;-0.96;83.78;98834.75;4961659;28;20590;-63
2023/04/06 04:08:21;;;;;;;9.10;5.63;;;;;;;-0.90;84.77;98835.28;4972107;28;20261;-62
2023/04/06 04:10:48;;;;;;;13.30;6.17;;;;;;;-0.94;82.84;98835.50;4959983;28;20230;-62
2023/04/06 04:13:15;;;;;;;10.20;5.53;;;;;;;-1.00;82.16;98841.75;4989072;28;20242;-62
2023/04/06 04:15:47;;;;;;;15.33;5.50;;;;;;;-1.05;81.79;98844.50;4996405;28;20257;-62
2023/04/06 04:18:14;;;;;;;10.23;6.17;;;;;;;-1.01;81.96;98846.94;4994663;28;20232;-62
2023/04/06 04:20:40;;;;;;;11.73;5.70;;;;;;;-0.94;81.35;98846.59;4976515;28;20337;-62
2023/04/06 04:23:09;;;;;;;11.67;5.70;;;;;;;-0.95;82.57;98849.22;4982157;28;20263;-62
2023/04/06 04:25:38;;;;;;;9.27;6.03;;;;;;;-0.93;84.51;98855.09;4975438;28;20764;-62
2023/04/06 04:28:05;;;;;;;8.60;6.07;;;;;;;-1.06;83.15;98845.41;4979169;28;20585;-62
2023/04/06 04:30:32;;;;;;;9.30;5.43;;;;;;;-0.98;82.53;98855.31;4959063;28;20708;-62
2023/04/06 04:32:59;;;;;;;8.37;5.80;;;;;;;-1.02;83.67;98856.38;4958057;28;20320;-62
2023/04/06 04:35:27;;;;;;;8.00;5.03;;;;;;;-1.18;83.84;98853.69;4972072;28;20224;-62
2023/04/06 04:37:54;;;;;;;10.33;5.93;;;;;;;-1.23;84.78;98858.19;4977047;28;20252;-62
2023/04/06 04:40:21;;;;;;;9.13;5.70;;;;;;;-1.29;84.49;98866.97;4973980;28;20230;-62
2023/04/06 04:42:54;;;;;;;9.33;6.00;;;;;;;-1.32;83.81;98861.19;4966088;28;20233;-62
2023/04/06 04:45:29;;;;;;;9.37;5.97;;;;;;;-1.36;83.47;98866.44;4971806;28;20283;-62
2023/04/06 04:47:58;;;;;;;9.60;5.37;;;;;;;-1.32;83.87;98871.44;4965876;28;20233;-62
2023/04/06 04:50:30;;;;;;;11.90;6.03;;;;;;;-1.30;84.83;98864.50;4974150;28;20235;-62
2023/04/06 04:52:58;;;;;;;12.17;6.03;;;;;;;-1.20;85.17;98863.19;4976731;28;20329;-62
2023/04/06 04:55:27;;;;;;;12.40;6.30;;;;;;;-1.09;85.38;98867.81;4963473;28;20641;-62
2023/04/06 04:57:58;;;;;;;9.43;6.10;;;;;;;-1.18;85.35;98866.50;4981695;28;20846;-62
2023/04/06 05:00:45;;;;;;;10.37;5.60;;;;;;;-1.19;85.61;98863.09;4967981;28;20269;-62
2023/04/06 05:03:21;;;;;;;9.03;5.77;;;;;;;-1.14;87.33;98868.03;4981865;28;20314;-62
2023/04/06 05:05:55;;;;;;;8.43;5.57;;;;;;;-1.11;87.86;98872.16;4975787;28;20239;-62
2023/04/06 05:08:25;;;;;;;9.27;5.60;;;;;;;-1.18;88.17;98876.75;4973121;28;20237;-62
2023/04/06 05:10:52;;;;;;;13.53;5.20;;;;;;;-1.17;87.35;98870.72;4980009;28;20602;-62
2023/04/06 05:13:21;;;;;;;11.97;5.93;;;;;;;-1.16;87.72;98877.50;4981651;28;20809;-62
2023/04/06 05:15:49;;;;;;;8.87;5.50;;;;;;;-1.11;86.86;98870.44;4978793;28;20330;-62
2023/04/06 05:18:35;;;;;;;10.13;5.67;;;;;;;-1.06;87.04;98883.03;4963668;28;20388;-62
2023/04/06 05:21:03;;;;;;;9.90;5.73;;;;;;;-0.95;86.13;98883.38;4967471;28;20629;-62
2023/04/06 05:23:38;;;;;;;11.43;6.17;;;;;;;-0.96;85.66;98883.44;4992517;28;20233;-62
2023/04/06 05:26:06;;;;;;;10.90;5.40;;;;;;;-0.87;83.77;98885.56;4975670;28;20343;-62
2023/04/06 05:28:35;;;;;;;9.63;5.80;;;;;;;-0.81;82.44;98881.91;4970744;28;21393;-62
2023/04/06 05:31:03;;;;;;;10.10;5.70;;;;;;;-0.78;83.08;98882.56;4957683;28;20287;-62
2023/04/06 05:33:39;;;;;;;8.97;5.93;;;;;;;-0.75;83.42;98884.16;4974493;28;20308;-62
2023/04/06 05:36:10;;;;;;;11.43;6.20;;;;;;;-0.70;83.07;98887.34;4963545;28;20272;-62
2023/04/06 05:38:40;;;;;;;10.37;6.13;;;;;;;-0.64;81.40;98888.78;4973088;28;20234;-62
2023/04/06 05:41:21;;;;;;;10.17;6.00;;;;;;;-0.64;81.40;98893.91;4971830;28;20581;-62
2023/04/06 05:43:49;;;;;;;11.23;5.90;;;;;;;-0.58;82.20;98896.19;4975426;28;20230;-62
2023/04/06 05:46:16;;;;;;;12.53;7.80;;;;;;;-0.54;83.12;98894.31;4980230;28;20224;-62
2023/04/06 05:48:42;;;;;;;10.63;6.37;;;;;;;-0.53;82.68;98888.28;4978472;28;20224;-62
2023/04/06 05:51:10;;;;;;;9.67;6.03;;;;;;;-0.46;81.64;98889.63;4996185;28;20296;-62
2023/04/06 05:53:44;;;;;;;9.27;5.80;;;;;;;-0.42;82.08;98888.56;4992417;28;20230;-62
2023/04/06 05:56:11;;;;;;;7.90;5.20;;;;;;;-0.36;81.19;98884.88;4996279;28;20243;-62
2023/04/06 05:58:37;;;;;;;9.93;6.17;;;;;;;-0.33;82.01;98888.13;4993261;28;20241;-62
2023/04/06 06:01:08;;;;;;;14.03;7.00;;;;;;;-0.27;82.80;98887.00;4963910;28;20237;-62
2023/04/06 06:03:40;;;;;;;10.27;6.40;;;;;;;-0.22;81.65;98890.16;4993563;28;20235;-62
2023/04/06 06:06:07;;;;;;;8.30;5.17;;;;;;;-0.16;82.54;98895.00;4969438;28;20766;-62
2023/04/06 06:08:48;;;;;;;12.30;6.73;;;;;;;-0.07;82.46;98890.31;4989907;28;20241;-62
2023/04/06 06:11:17;;;;;;;11.80;6.87;;;;;;;0.04;83.38;98887.19;4981743;28;20265;-62
2023/04/06 06:13:44;;;;;;;9.83;6.03;;;;;;;0.17;84.61;98892.53;4980604;28;20591;-63
2023/04/06 06:16:12;;;;;;;10.70;5.97;;;;;;;0.18;84.89;98894.19;4997487;28;20291;-62
2023/04/06 06:18:44;;;;;;;9.90;5.87;;;;;;;0.20;84.93;98890.66;4986006;28;20312;-62
2023/04/06 06:21:12;;;;;;;11.57;7.77;;;;;;;0.24;83.49;98893.88;4983473;28;20958;-62
2023/04/06 06:23:39;;;;;;;11.03;6.20;;;;;;;0.28;82.17;98885.94;4975285;28;20231;-62
2023/04/06 06:26:06;;;;;;;12.67;6.43;;;;;;;0.35;82.44;98883.88;4977401;28;20768;-62
2023/04/06 06:28:33;;;;;;;9.13;5.90;;;;;;;0.43;82.75;98883.50;4976985;28;23577;-62
2023/04/06 06:31:00;;;;;;;7.97;5.50;;;;;;;0.52;82.09;98882.19;4978971;28;20236;-62
2023/04/06 06:33:29;;;;;;;8.30;5.37;;;;;;;0.59;81.50;98879.19;4961505;28;20234;-62
2023/04/06 06:35:59;;;;;;;7.73;5.57;;;;;;;0.71;80.37;98882.03;4969257;28;20723;-63
2023/04/06 06:38:27;;;;;;;10.40;5.37;;;;;;;0.81;79.41;98882.38;4965076;28;20229;-63
2023/04/06 06:40:55;;;;;;;8.57;4.90;;;;;;;0.95;79.40;98879.03;4978332;28;20229;-63
2023/04/06 06:43:24;;;;;;;9.70;6.07;;;;;;;1.11;79.52;98885.00;4976638;28;20316;-63
2023/04/06 06:45:58;;;;;;;9.00;5.20;;;;;;;1.15;79.10;98883.09;4984683;28;20228;-63
2023/04/06 06:48:25;;;;;;;8.97;5.83;;;;;;;1.22;77.73;98888.75;4975670;28;20225;-63
2023/04/06 06:50:53;;;;;;;7.47;5.53;;;;;;;1.30;78.30;98894.28;4979763;28;20189;-63
2023/04/06 06:53:20;;;;;;;9.63;5.80;;;;;;;1.40;78.67;98903.16;4964890;28;20808;-63
2023/04/06 06:55:48;;;;;;;8.73;5.53;;;;;;;1.47;77.99;98906.19;4988324;28;20221;-62
2023/04/06 06:58:15;;;;;;;9.50;5.27;;;;;;;1.56;77.29;98905.69;4995491;28;20303;-62
2023/04/06 07:00:42;;;;;;;8.07;5.57;;;;;;;1.69;77.04;98898.09;4977162;28;20276;-62
2023/04/06 07:03:09;;;;;;;9.97;6.17;;;;;;;1.84;78.00;98895.53;4985319;28;21190;-62
2023/04/06 07:05:36;;;;;;;8.30;5.57;;;;;;;1.96;77.72;98896.59;4993729;28;20599;-62
2023/04/06 07:08:05;;;;;;;9.17;5.50;;;;;;;2.06;77.04;98897.72;4977902;28;20638;-62
2023/04/06 07:10:32;;;;;;;10.93;5.87;;;;;;;2.16;74.22;98901.38;4992760;28;20244;-62
2023/04/06 07:12:58;;;;;;;8.47;5.53;;;;;;;2.28;74.07;98899.84;4979980;28;20242;-62
2023/04/06 07:15:25;;;;;;;9.70;5.80;;;;;;;2.50;71.83;98901.16;4966031;28;20232;-62
2023/04/06 07:17:54;;;;;;;9.80;5.60;;;;;;;2.67;69.99;98900.09;4960935;28;20340;-62
2023/04/06 07:20:21;;;;;;;8.10;5.90;;;;;;;2.92;67.97;98907.16;4973395;28;20746;-64
2023/04/06 07:22:48;;;;;;;8.30;5.07;;;;;;;3.12;69.94;98897.34;4977837;28;20656;-64
2023/04/06 07:25:16;;;;;;;8.43;5.47;;;;;;;3.29;68.79;98895.47;4965949;28;20277;-62
2023/04/06 07:27:43;;;;;;;7.30;4.87;;;;;;;3.43;69.01;98903.16;4987934;28;20240;-63
2023/04/06 07:30:12;;;;;;;10.67;5.13;;;;;;;3.60;66.07;98898.66;4983741;28;20273;-63
2023/04/06 07:32:39;;;;;;;8.03;4.93;;;;;;;3.77;65.63;98898.34;4988541;28;20636;-63
2023/04/06 07:35:06;;;;;;;9.33;5.30;;;;;;;3.95;63.46;98898.06;4967059;28;20318;-63
2023/04/06 07:37:33;;;;;;;8.10;5.40;;;;;;;4.19;64.67;98903.38;4976573;28;20335;-63
2023/04/06 07:40:00;;;;;;;9.77;5.13;;;;;;;4.29;66.43;98896.63;4964643;28;20233;-63
2023/04/06 07:42:29;;;;;;;20.63;13.77;;;;;;;4.41;62.26;98902.75;4964462;28;20727;-63
2023/04/06 07:44:56;;;;;;;8.70;6.00;;;;;;;4.58;63.13;98901.56;4977782;28;20233;-63
2023/04/06 07:47:24;;;;;;;13.87;6.60;;;;;;;4.70;61.75;98905.09;4959070;28;20887;-63
2023/04/06 07:49:51;;;;;;;9.50;6.40;;;;;;;4.83;63.80;98899.88;4982306;28;20233;-63
2023/04/06 07:52:17;;;;;;;8.67;5.80;;;;;;;4.98;65.20;98907.50;4993883;28;20623;-63
2023/04/06 07:54:45;;;;;;;11.93;7.13;;;;;;;5.09;57.81;98904.13;4989927;28;20237;-63
2023/04/06 07:57:12;;;;;;;9.93;7.30;;;;;;;5.22;57.56;98904.94;4982059;28;20722;-63
2023/04/06 07:59:40;;;;;;;12.13;7.20;;;;;;;5.32;57.38;98907.66;4974436;28;20312;-63
2023/04/06 08:02:07;;;;;;;17.97;8.33;;;;;;;5.42;58.93;98911.25;4977408;28;20242;-64
2023/04/06 08:04:34;;;;;;;14.10;8.07;;;;;;;5.53;59.42;98915.66;4972891;28;22528;-64
2023/04/06 08:07:00;;;;;;;14.27;8.60;;;;;;;5.63;59.75;98913.22;4977663;28;20235;-64
2023/04/06 08:09:27;;;;;;;16.17;9.80;;;;;;;5.67;59.43;98903.47;4976626;28;20225;-64
2023/04/06 08:11:54;;;;;;;16.60;9.43;;;;;;;5.72;59.77;98909.16;4979012;28;20242;-64
2023/04/06 08:14:21;;;;;;;13.10;8.80;;;;;;;5.76;60.39;98910.56;4975895;28;20313;-64
2023/04/06 08:16:49;;;;;;;19.60;12.00;;;;;;;5.87;59.13;98899.41;4977668;28;20229;-64
2023/04/06 08:19:17;;;;;;;18.63;9.90;;;;;;;5.80;58.14;98916.34;4974605;28;20229;-64
2023/04/06 08:21:43;;;;;;;15.73;10.45;;;;;;;5.95;59.46;98910.03;4984203;28;20454;-64
2023/04/06 08:24:10;;;;;;;16.30;10.10;;;;;;;5.92;59.21;98915.44;4978700;28;20238;-64
2023/04/06 08:26:37;;;;;;;16.33;10.93;;;;;;;6.03;59.93;98907.72;4973712;28;20319;-64
2023/04/06 08:29:07;;;;;;;22.43;10.90;;;;;;;6.20;61.09;98916.00;4978585;28;20316;-65
2023/04/06 08:31:34;;;;;;;24.50;11.40;;;;;;;6.31;58.07;98916.03;4975372;28;20340;-64
2023/04/06 08:34:03;;;;;;;19.87;10.90;;;;;;;6.23;58.39;98920.97;4980187;28;20229;-64
2023/04/06 08:36:29;;;;;;;16.43;9.83;;;;;;;6.32;58.24;98909.91;4970657;28;20244;-64
2023/04/06 08:38:56;;;;;;;16.00;10.00;;;;;;;6.35;58.13;98914.00;4979434;28;20325;-64
2023/04/06 08:41:23;;;;;;;14.53;9.77;;;;;;;6.41;58.66;98917.88;4971785;28;20241;-64
2023/04/06 08:43:55;;;;;;;11.97;8.90;;;;;;;6.48;58.23;98919.06;4979068;28;20259;-60
2023/04/06 08:46:22;;;;;;;14.53;9.97;;;;;;;6.61;59.25;98917.19;4972014;28;20315;-61
2023/04/06 08:48:50;;;;;;;15.03;9.90;;;;;;;6.61;57.36;98918.97;4977297;28;20236;-63
2023/04/06 08:51:19;;;;;;;19.17;11.80;;;;;;;6.68;59.44;98916.72;4970490;28;20235;-63
2023/04/06 08:53:48;;;;;;;17.13;10.80;;;;;;;6.68;59.23;98920.16;4973347;28;20329;-64
2023/04/06 08:56:15;;;;;;;18.47;10.77;;;;;;;6.70;58.22;98917.44;4972454;28;20229;-64
2023/04/06 08:58:42;;;;;;;17.60;10.70;;;;;;;6.69;58.66;98921.81;4976738;28;20295;-64
2023/04/06 09:01:12;;;;;;;15.80;10.53;;;;;;;6.71;58.96;98922.50;4979657;28;20767;-64
2023/04/06 09:03:41;;;;;;;16.27;11.03;;;;;;;6.82;57.88;98913.06;4971829;28;20316;-64
2023/04/06 09:06:08;;;;;;;14.67;10.73;;;;;;;6.94;60.11;98918.13;4979097;28;20226;-63
2023/04/06 09:08:39;;;;;;;24.60;13.07;;;;;;;7.12;59.54;98920.22;4975774;28;20233;-63
2023/04/06 09:11:06;;;;;;;23.03;12.47;;;;;;;7.34;59.63;98921.09;4975267;28;20308;-63
2023/04/06 09:13:45;;;;;;;17.47;10.40;;;;;;;7.42;58.03;98917.88;4975824;28;20763;-64
2023/04/06 09:16:12;;;;;;;15.07;10.47;;;;;;;7.53;58.89;98915.25;4978455;28;21195;-64
2023/04/06 09:18:39;;;;;;;18.13;10.93;;;;;;;7.58;56.49;98915.69;4974400;28;20230;-64
2023/04/06 09:21:07;;;;;;;18.83;11.40;;;;;;;7.55;56.10;98918.53;4976919;28;20234;-64
2023/04/06 09:23:34;;;;;;;16.07;10.17;;;;;;;7.68;54.92;98919.19;4974113;28;20324;-64
2023/04/06 09:26:11;;;;;;;17.43;12.47;;;;;;;7.75;55.71;98919.50;4975502;28;20310;-64
2023/04/06 09:28:46;;;;;;;14.17;9.77;;;;;;;7.86;55.61;98925.59;4973917;28;21300;-64
2023/04/06 09:31:13;;;;;;;18.07;10.03;;;;;;;7.99;53.81;98926.25;4972884;28;20245;-64
2023/04/06 09:33:42;;;;;;;15.87;9.43;;;;;;;7.97;51.66;98926.34;4973559;28;20317;-64
2023/04/06 09:36:09;;;;;;;16.83;9.40;;;;;;;7.99;51.21;98926.25;4976913;28;20746;-64
2023/04/06 09:38:38;;;;;;;13.37;9.13;;;;;;;7.94;51.79;98928.41;4974363;28;20238;-64
2023/04/06 09:41:05;;;;;;;14.33;9.50;;;;;;;7.98;51.20;98930.59;4976702;28;20229;-64
2023/04/06 09:43:34;;;;;;;15.20;9.47;;;;;;;8.03;50.92;98924.19;4971973;28;20242;-64
2023/04/06 09:46:03;;;;;;;16.57;9.17;;;;;;;8.17;50.98;98920.47;4975985;28;20325;-64
2023/04/06 09:48:32;;;;;;;13.43;9.53;;;;;;;8.39;51.26;98922.09;4972520;28;20247;-64
2023/04/06 09:51:01;;;;;;;12.70;8.20;;;;;;;8.50;49.52;98923.81;4977009;28;20329;-64
2023/04/06 09:53:32;;;;;;;14.73;8.77;;;;;;;8.50;51.33;98924.63;4973431;28;20320;-64
2023/04/06 09:56:03;;;;;;;13.40;8.90;;;;;;;8.56;49.65;98915.47;4976890;28;20254;-64
2023/04/06 09:58:38;;;;;;;13.47;8.47;;;;;;;8.65;49.29;98922.50;4972745;28;20238;-64
2023/04/06 10:01:10;;;;;;;17.77;8.73;;;;;;;8.77;48.25;98915.44;4976135;28;20254;-64
2023/04/06 10:03:44;;;;;;;10.73;8.23;;;;;;;8.82;46.74;98912.41;4975084;28;20233;-64
2023/04/06 10:06:14;;;;;;;13.93;8.23;;;;;;;9.15;49.55;98918.28;4976084;28;20238;-64
2023/04/06 10:08:42;;;;;;;16.70;8.70;;;;;;;9.26;46.57;98914.72;4971168;28;20247;-64
2023/04/06 10:11:09;;;;;;;14.07;8.20;;;;;;;9.45;46.11;98919.13;4976796;28;20326;-64
2023/04/06 10:13:38;;;;;;;12.00;7.70;;;;;;;9.58;44.50;98924.88;4975190;28;20235;-64
2023/04/06 10:16:06;;;;;;;15.13;8.73;;;;;;;9.50;41.97;98923.91;4975180;28;20236;-63
2023/04/06 10:18:34;;;;;;;12.03;7.60;;;;;;;9.59;41.65;98921.31;4970570;28;20750;-63
2023/04/06 10:21:05;;;;;;;11.90;8.17;;;;;;;9.49;41.50;98915.28;4974597;28;20236;-63
2023/04/06 10:23:34;;;;;;;13.60;8.07;;;;;;;9.49;42.29;98911.84;4973024;28;20239;-63
2023/04/06 10:26:02;;;;;;;16.57;8.57;;;;;;;9.57;41.37;98914.59;4975656;28;20322;-63
2023/04/06 10:28:32;;;;;;;14.07;8.10;;;;;;;9.88;40.66;98915.25;4971160;28;20240;-63
2023/04/06 10:31:02;;;;;;;12.90;8.20;;;;;;;9.94;40.67;98911.28;4974508;28;20236;-63
2023/04/06 10:33:29;;;;;;;12.83;7.47;;;;;;;10.04;41.22;98913.88;4975737;28;20229;-63
2023/04/06 10:35:58;;;;;;;12.37;7.17;;;;;;;10.39;38.55;98917.66;4978272;28;20235;-64
2023/04/06 10:38:35;;;;;;;14.17;7.27;;;;;;;10.54;40.46;98911.97;4974584;28;20519;-64
2023/04/06 10:41:05;;;;;;;12.67;8.07;;;;;;;10.43;40.01;98905.97;4973988;28;20256;-64
2023/04/06 10:43:34;;;;;;;11.63;7.63;;;;;;;10.43;39.27;98905.97;4974325;28;20354;-64
2023/04/06 10:46:03;;;;;;;12.33;8.10;;;;;;;10.54;39.66;98904.16;4982307;28;20232;-64
2023/04/06 10:48:39;;;;;;;10.33;7.93;;;;;;;10.85;37.53;98899.47;4978053;28;20629;-64
2023/04/06 10:51:09;;;;;;;12.13;7.30;;;;;;;11.23;37.24;98900.16;4977645;28;20243;-64
2023/04/06 10:53:36;;;;;;;12.83;8.00;;;;;;;11.36;36.42;98899.81;4993068;28;20729;-64
2023/04/06 10:56:03;;;;;;;12.47;8.27;;;;;;;11.36;38.42;98894.59;4978791;28;20250;-64
2023/04/06 10:58:30;;;;;;;11.73;7.53;;;;;;;11.74;38.38;98901.44;4979408;28;20240;-64
2023/04/06 11:00:59;;;;;;;12.47;7.83;;;;;;;11.78;37.27;98900.97;4980857;28;20236;-64
2023/04/06 11:03:27;;;;;;;13.47;7.77;;;;;;;11.36;35.26;98881.53;4977712;28;20596;-64
2023/04/06 11:05:56;;;;;;;13.73;8.07;;;;;;;11.69;35.60;98887.97;4978969;28;20232;-64
2023/04/06 11:08:24;;;;;;;10.70;7.43;;;;;;;11.67;35.16;98888.94;4966935;28;20265;-64
2023/04/06 11:10:51;;;;;;;13.03;7.47;;;;;;;11.58;35.72;98884.66;4980489;28;20239;-64
2023/04/06 11:13:18;;;;;;;12.53;7.63;;;;;;;11.94;36.94;98892.44;4975473;28;20253;-64
2023/04/06 11:15:44;;;;;;;11.90;7.03;;;;;;;11.77;34.26;98883.66;4983645;28;20709;-64
2023/04/06 11:18:11;;;;;;;10.00;6.47;;;;;;;12.06;35.04;98879.13;4980560;28;20723;-64
2023/04/06 11:20:40;;;;;;;9.53;6.33;;;;;;;12.03;34.58;98876.81;4977059;28;20236;-64
2023/04/06 11:23:06;;;;;;;14.33;7.17;;;;;;;12.07;33.67;98883.38;4978521;28;20335;-64
2023/04/06 11:25:33;;;;;;;10.13;6.07;;;;;;;12.06;32.21;98873.91;4978786;28;20827;-64
2023/04/06 11:28:00;;;;;;;10.97;6.33;;;;;;;11.98;32.94;98852.88;4981602;28;20334;-64
2023/04/06 11:30:27;;;;;;;6.87;5.37;;;;;;;12.51;32.92;98864.97;4974914;28;20333;-64
2023/04/06 11:33:02;;;;;;;7.70;5.13;;;;;;;12.52;30.81;98876.25;4979513;28;20231;-64
2023/04/06 11:35:33;;;;;;;8.13;5.13;;;;;;;12.20;31.16;98857.63;4978482;28;20720;-64
2023/04/06 11:38:04;;;;;;;7.53;5.03;;;;;;;12.34;32.68;98871.09;4976599;28;20239;-64
2023/04/06 11:40:32;;;;;;;7.10;5.17;;;;;;;12.08;30.89;98864.09;4977054;28;20232;-64
2023/04/06 11:42:59;;;;;;;6.40;4.83;;;;;;;12.50;30.47;98855.47;4979688;28;20283;-64